Date,TemperatureHighF,TemperatureAvgF,TemperatureLowF,DewpointHighF,DewpointAvgF,DewpointLowF,HumidityHigh,HumidityAvg,HumidityLow,PressureMaxIn,PressureMinIn,WindSpeedMaxMPH,WindSpeedAvgMPH,GustSpeedMaxMPH,PrecipitationSumIn
2013-10-1,73,66,55,-100,-100,-100,0,0,100,0.00,40.00,0,-999,0,0.00
2013-10-2,81,63,47,-100,-100,-100,0,0,100,0.00,40.00,0,-999,0,0.00
2013-10-3,75,64,49,-100,-100,-100,0,0,100,0.00,40.00,0,-999,0,0.00
2013-10-4,82,68,55,-100,-100,-100,0,0,100,0.00,40.00,0,-999,0,0.00
2013-10-5,85,64,42,-100,-100,-100,0,0,100,0.00,40.00,0,-999,0,0.00
2013-10-6,86,62,43,-100,-100,-100,0,0,100,0.00,40.00,0,-999,0,0.00
2013-10-7,85,64,45,-100,-100,-100,0,0,100,0.00,40.00,0,-999,0,0.00
2013-10-8,79,63,48,-100,-100,-100,0,0,100,0.00,40.00,0,-999,0,0.00
2013-10-9,75,61,45,-100,-100,-100,0,0,100,0.00,40.00,0,-999,0,0.00
2013-10-10,74,58,46,-100,-100,-100,0,0,100,0.00,40.00,0,-999,0,0.00
2013-10-11,77,61,42,-100,-100,-100,0,0,100,0.00,40.00,0,-999,0,0.00
2013-10-12,76,59,43,-100,-100,-100,0,0,100,0.00,40.00,0,-999,0,0.00
2013-10-13,75,61,48,-100,-100,-100,0,0,100,0.00,40.00,0,-999,0,0.00
2013-10-14,76,57,40,-100,-100,-100,0,0,100,0.00,40.00,0,-999,0,0.00
2013-10-15,81,62,45,-100,-100,-100,0,0,100,0.00,40.00,0,-999,0,0.00
2013-10-16,82,61,41,-100,-100,-100,0,0,100,0.00,40.00,0,-999,0,0.00
2013-10-17,81,60,41,-100,-100,-100,0,0,100,0.00,40.00,0,-999,0,0.00
2013-10-18,83,59,42,-100,-100,-100,0,0,100,0.00,40.00,0,-999,0,0.00
2013-10-19,84,61,42,-100,-100,-100,0,0,100,0.00,40.00,0,-999,0,0.00
2013-10-20,84,62,41,-100,-100,-100,0,0,100,0.00,40.00,0,-999,0,0.00
2013-10-21,84,63,43,-100,-100,-100,0,0,100,0.00,40.00,0,-999,0,0.00
2013-10-22,81,57,44,-100,-100,-100,0,0,100,0.00,40.00,0,-999,0,0.00
2013-10-23,81,59,41,-100,-100,-100,0,0,100,0.00,40.00,0,-999,0,0.00
2013-10-24,71,58,45,-100,-100,-100,0,0,100,0.00,40.00,0,-999,0,0.00
2013-10-25,77,58,44,-100,-100,-100,0,0,100,0.00,40.00,0,-999,0,0.00
2013-10-26,79,59,42,-100,-100,-100,0,0,100,0.00,40.00,0,-999,0,0.00
2013-10-27,70,53,41,-100,-100,-100,0,0,100,0.00,40.00,0,-999,0,0.00
2013-10-28,66,53,44,-100,-100,-100,0,0,100,0.00,40.00,0,-999,0,0.00
2013-10-29,65,55,48,-100,-100,-100,0,0,100,0.00,40.00,0,-999,0,0.00
2013-10-30,68,51,37,-100,-100,-100,0,0,100,0.00,40.00,0,-999,0,0.00
2013-10-31,72,52,37,-100,-100,-100,0,0,100,0.00,40.00,0,-999,0,0.00